Time;durP1;ratioP1;P1;durP2;ratioP2;P2;SDS_P1;SDS_P2;PMS_P1;PMS_P2;Temp;Humidity;BMP_temperature;BMP_pressure;BME280_temperature;BME280_humidity;BME280_pressure;Samples;Min_cycle;Max_cycle;Signal;HPM_P1;HPM_P2
2022/11/13 00:00:34;;;;;;;5.97;2.00;;;;;;;;;;5028495;28;20041;-66
2022/11/13 00:03:20;;;;;;;6.85;2.33;;;;;;;;;;5033272;28;20059;-65
2022/11/13 00:05:45;;;;;;;8.25;2.20;;;;;;;;;;5044929;28;20053;-67
2022/11/13 00:08:12;;;;;;;15.63;2.28;;;;;;;;;;5043337;28;20057;-65
2022/11/13 00:10:38;;;;;;;12.05;2.50;;;;;;;;;;5039273;28;20045;-66
2022/11/13 00:13:04;;;;;;;8.88;2.50;;;;;;;;;;5038159;28;20103;-66
2022/11/13 00:15:30;;;;;;;8.15;2.38;;;;;;;;;;5029422;28;20049;-67
2022/11/13 00:18:01;;;;;;;7.55;2.03;;;;;;;;;;5041315;28;20453;-66
2022/11/13 00:20:27;;;;;;;7.38;1.90;;;;;;;;;;5043819;28;20053;-68
2022/11/13 00:22:53;;;;;;;6.68;1.90;;;;;;;;;;5038555;28;20045;-66
2022/11/13 00:25:19;;;;;;;3.65;1.90;;;;;;;;;;5044300;28;20049;-72
2022/11/13 00:27:45;;;;;;;6.38;1.90;;;;;;;;;;5043454;28;20057;-65
2022/11/13 00:30:11;;;;;;;8.52;2.50;;;;;;;;;;5043349;28;20052;-67
2022/11/13 00:32:38;;;;;;;14.85;2.22;;;;;;;;;;5044854;28;20064;-65
2022/11/13 00:35:06;;;;;;;4.57;1.90;;;;;;;;;;5034991;28;20599;-66
2022/11/13 00:37:31;;;;;;;3.83;1.65;;;;;;;;;;5040827;28;20048;-66
2022/11/13 00:39:57;;;;;;;11.02;2.17;;;;;;;;;;5038957;28;20045;-67
2022/11/13 00:42:23;;;;;;;3.78;1.75;;;;;;;;;;5043383;28;20491;-67
2022/11/13 00:44:49;;;;;;;5.15;2.47;;;;;;;;;;5031536;28;20341;-66
2022/11/13 00:47:14;;;;;;;4.53;2.50;;;;;;;;;;5045137;28;20087;-66
2022/11/13 00:49:40;;;;;;;4.47;2.65;;;;;;;;;;5035809;28;20046;-67
2022/11/13 00:52:06;;;;;;;4.38;2.50;;;;;;;;;;5037623;28;20060;-65
2022/11/13 00:54:32;;;;;;;6.97;2.80;;;;;;;;;;5041569;28;20049;-66
2022/11/13 00:56:58;;;;;;;4.50;2.65;;;;;;;;;;5038705;28;20116;-65
2022/11/13 00:59:23;;;;;;;7.38;3.08;;;;;;;;;;5036474;28;20054;-66
2022/11/13 01:01:49;;;;;;;8.57;3.55;;;;;;;;;;5037673;28;20562;-65
2022/11/13 01:04:15;;;;;;;10.50;3.13;;;;;;;;;;5036131;28;20053;-65
2022/11/13 01:06:43;;;;;;;6.85;3.63;;;;;;;;;;5042240;28;20044;-66
2022/11/13 01:09:09;;;;;;;7.47;3.60;;;;;;;;;;5041261;28;20441;-66
2022/11/13 01:11:35;;;;;;;6.53;3.33;;;;;;;;;;5037261;28;20049;-67
2022/11/13 01:14:00;;;;;;;7.45;3.38;;;;;;;;;;5032038;28;20098;-67
2022/11/13 01:16:27;;;;;;;7.75;3.60;;;;;;;;;;5042020;28;20049;-66
2022/11/13 01:18:55;;;;;;;8.43;3.30;;;;;;;;;;5037312;28;20502;-66
2022/11/13 01:21:26;;;;;;;5.47;3.38;;;;;;;;;;5042437;28;20520;-67
2022/11/13 01:23:53;;;;;;;9.30;3.30;;;;;;;;;;5040320;28;20045;-65
2022/11/13 01:26:26;;;;;;;5.50;3.03;;;;;;;;;;5042360;28;20049;-66
2022/11/13 01:28:53;;;;;;;5.93;3.30;;;;;;;;;;5038078;28;20045;-68
2022/11/13 01:31:22;;;;;;;8.48;3.20;;;;;;;;;;5037488;28;20583;-67
2022/11/13 01:33:49;;;;;;;5.72;3.22;;;;;;;;;;5038281;28;20052;-69
2022/11/13 01:36:24;;;;;;;7.45;3.10;;;;;;;;;;5039180;28;20049;-66
2022/11/13 01:38:50;;;;;;;6.95;3.33;;;;;;;;;;5047333;28;20064;-65
2022/11/13 01:41:22;;;;;;;5.22;3.47;;;;;;;;;;5033576;28;20049;-67
2022/11/13 01:43:49;;;;;;;6.78;3.40;;;;;;;;;;5048450;28;20245;-66
2022/11/13 01:46:23;;;;;;;9.38;3.30;;;;;;;;;;5045061;28;20075;-67
2022/11/13 01:48:55;;;;;;;7.50;3.30;;;;;;;;;;5035105;28;20045;-66
2022/11/13 01:51:29;;;;;;;10.90;3.40;;;;;;;;;;5038089;28;20049;-66
2022/11/13 01:53:56;;;;;;;6.18;3.40;;;;;;;;;;5024100;28;20052;-65
2022/11/13 01:56:22;;;;;;;6.38;3.22;;;;;;;;;;5046641;28;20056;-65
2022/11/13 01:58:55;;;;;;;7.15;3.30;;;;;;;;;;5046303;28;20505;-65
2022/11/13 02:01:21;;;;;;;7.75;3.15;;;;;;;;;;5031577;28;20497;-65
2022/11/13 02:03:47;;;;;;;7.05;3.05;;;;;;;;;;5040613;28;20061;-66
2022/11/13 02:06:13;;;;;;;4.63;3.10;;;;;;;;;;5041397;28;20038;-66
2022/11/13 02:08:39;;;;;;;7.88;3.25;;;;;;;;;;5040323;28;20421;-65
2022/11/13 02:11:05;;;;;;;5.85;3.22;;;;;;;;;;5041404;28;20055;-66
2022/11/13 02:13:31;;;;;;;7.75;3.10;;;;;;;;;;5041442;28;20049;-63
2022/11/13 02:15:58;;;;;;;7.70;2.85;;;;;;;;;;5030699;28;20421;-66
2022/11/13 02:18:28;;;;;;;8.60;2.85;;;;;;;;;;5041411;28;20049;-66
2022/11/13 02:20:59;;;;;;;5.95;3.40;;;;;;;;;;5045193;28;20052;-64
2022/11/13 02:23:48;;;;;;;6.32;3.05;;;;;;;;;;5047256;28;20410;-66
2022/11/13 02:26:15;;;;;;;8.25;3.17;;;;;;;;;;5040040;28;20044;-66
2022/11/13 02:28:41;;;;;;;7.53;2.67;;;;;;;;;;5042515;28;20094;-65
2022/11/13 02:31:09;;;;;;;4.80;2.97;;;;;;;;;;5029420;28;20128;-66
2022/11/13 02:33:35;;;;;;;5.63;2.88;;;;;;;;;;5030169;28;20049;-65
2022/11/13 02:36:01;;;;;;;6.72;2.95;;;;;;;;;;5033707;28;20411;-66
2022/11/13 02:38:28;;;;;;;6.55;2.92;;;;;;;;;;5030711;28;20145;-65
2022/11/13 02:40:54;;;;;;;7.07;2.78;;;;;;;;;;5035967;28;20363;-64
2022/11/13 02:43:19;;;;;;;6.72;2.78;;;;;;;;;;5044530;28;20071;-66
2022/11/13 02:45:45;;;;;;;5.20;2.70;;;;;;;;;;5042046;28;20045;-65
2022/11/13 02:48:11;;;;;;;5.22;2.67;;;;;;;;;;5041989;28;20508;-64
2022/11/13 02:50:37;;;;;;;6.85;2.90;;;;;;;;;;5040143;28;20051;-65
2022/11/13 02:53:04;;;;;;;6.75;2.80;;;;;;;;;;5035744;28;20041;-67
2022/11/13 02:55:30;;;;;;;8.57;2.90;;;;;;;;;;5033909;28;20049;-63
2022/11/13 02:57:56;;;;;;;9.07;2.53;;;;;;;;;;5040966;28;20132;-65
2022/11/13 03:00:23;;;;;;;7.03;2.72;;;;;;;;;;5037657;28;20056;-64
2022/11/13 03:02:48;;;;;;;5.05;2.38;;;;;;;;;;5037766;28;20041;-65
2022/11/13 03:05:14;;;;;;;8.07;2.50;;;;;;;;;;5041676;28;20501;-66
2022/11/13 03:07:41;;;;;;;5.63;2.38;;;;;;;;;;5038349;28;20049;-67
2022/11/13 03:10:09;;;;;;;7.60;2.45;;;;;;;;;;5041357;28;20049;-65
2022/11/13 03:12:35;;;;;;;6.78;2.60;;;;;;;;;;5037793;28;20076;-66
2022/11/13 03:15:02;;;;;;;3.65;2.20;;;;;;;;;;5038605;28;20441;-68
2022/11/13 03:17:31;;;;;;;5.35;2.40;;;;;;;;;;5018942;28;20056;-65
2022/11/13 03:19:58;;;;;;;4.47;2.65;;;;;;;;;;5037280;28;20106;-65
2022/11/13 03:22:25;;;;;;;6.68;2.90;;;;;;;;;;5019049;28;20053;-65
2022/11/13 03:24:51;;;;;;;8.85;2.53;;;;;;;;;;5042915;28;20049;-65
2022/11/13 03:27:17;;;;;;;11.77;2.97;;;;;;;;;;5042587;28;20049;-65
2022/11/13 03:29:43;;;;;;;9.18;3.13;;;;;;;;;;5041667;28;20375;-63
2022/11/13 03:32:08;;;;;;;4.85;2.38;;;;;;;;;;5044832;28;20076;-66
2022/11/13 03:34:35;;;;;;;5.43;2.80;;;;;;;;;;5038201;28;20522;-63
2022/11/13 03:37:00;;;;;;;5.22;2.50;;;;;;;;;;5034467;28;20533;-66
2022/11/13 03:39:26;;;;;;;3.30;2.30;;;;;;;;;;5034954;28;20069;-67
2022/11/13 03:41:52;;;;;;;4.65;2.72;;;;;;;;;;5033852;28;20049;-66
2022/11/13 03:44:18;;;;;;;5.03;2.47;;;;;;;;;;5040496;28;20048;-65
2022/11/13 03:46:43;;;;;;;4.82;2.67;;;;;;;;;;5039255;28;20045;-65
2022/11/13 03:49:09;;;;;;;4.90;2.53;;;;;;;;;;5041634;28;20102;-66
2022/11/13 03:51:35;;;;;;;6.53;2.45;;;;;;;;;;5042149;28;20037;-65
2022/11/13 03:54:01;;;;;;;4.68;2.67;;;;;;;;;;5042691;28;20110;-65
2022/11/13 03:56:27;;;;;;;4.65;2.50;;;;;;;;;;5036159;28;20136;-65
2022/11/13 03:58:53;;;;;;;4.32;2.42;;;;;;;;;;5040266;28;20053;-64
2022/11/13 04:01:18;;;;;;;5.05;2.20;;;;;;;;;;5038305;28;20053;-65
2022/11/13 04:03:45;;;;;;;13.95;2.88;;;;;;;;;;5039747;28;20040;-67
2022/11/13 04:06:11;;;;;;;6.85;2.53;;;;;;;;;;5040892;28;20065;-64
2022/11/13 04:08:36;;;;;;;6.22;2.65;;;;;;;;;;5043941;28;20528;-66
2022/11/13 04:11:07;;;;;;;4.57;2.30;;;;;;;;;;5038805;28;20041;-66
2022/11/13 04:13:33;;;;;;;6.15;2.60;;;;;;;;;;5056118;28;20055;-64
2022/11/13 04:15:58;;;;;;;5.93;3.17;;;;;;;;;;5038310;28;20053;-65
2022/11/13 04:18:25;;;;;;;5.72;2.60;;;;;;;;;;5040126;28;20049;-66
2022/11/13 04:20:50;;;;;;;4.70;2.63;;;;;;;;;;5031595;28;20052;-65
2022/11/13 04:23:16;;;;;;;5.32;2.55;;;;;;;;;;5038093;28;20068;-65
2022/11/13 04:25:43;;;;;;;4.30;2.53;;;;;;;;;;5032087;28;20045;-65
2022/11/13 04:28:10;;;;;;;5.28;2.60;;;;;;;;;;5041280;28;20052;-66
2022/11/13 04:30:36;;;;;;;8.25;2.90;;;;;;;;;;5033188;28;20073;-64
2022/11/13 04:33:02;;;;;;;8.00;3.53;;;;;;;;;;5033604;28;20041;-64
2022/11/13 04:35:28;;;;;;;6.55;2.70;;;;;;;;;;5031348;28;20632;-64
2022/11/13 04:37:53;;;;;;;7.03;2.97;;;;;;;;;;5037808;28;20553;-65
2022/11/13 04:40:20;;;;;;;5.82;3.15;;;;;;;;;;5039891;28;20052;-64
2022/11/13 04:42:48;;;;;;;7.05;2.80;;;;;;;;;;5039395;28;20045;-65
2022/11/13 04:45:16;;;;;;;10.70;2.67;;;;;;;;;;5029233;28;20064;-66
2022/11/13 04:47:42;;;;;;;7.43;2.50;;;;;;;;;;5043337;28;20056;-65
2022/11/13 04:50:08;;;;;;;7.43;3.22;;;;;;;;;;5043345;28;20037;-64
2022/11/13 04:52:33;;;;;;;6.07;2.80;;;;;;;;;;5036564;28;20044;-65
2022/11/13 04:54:59;;;;;;;6.07;2.72;;;;;;;;;;5031871;28;20053;-65
2022/11/13 04:57:25;;;;;;;7.57;2.65;;;;;;;;;;5037178;28;22003;-66
2022/11/13 04:59:51;;;;;;;6.45;2.78;;;;;;;;;;5039045;28;20311;-65
2022/11/13 05:02:17;;;;;;;5.35;2.63;;;;;;;;;;5031772;28;20069;-63
2022/11/13 05:04:43;;;;;;;5.22;2.85;;;;;;;;;;5039352;28;20582;-63
2022/11/13 05:07:09;;;;;;;7.68;3.05;;;;;;;;;;5034596;28;20052;-67
2022/11/13 05:09:35;;;;;;;7.28;3.10;;;;;;;;;;5039943;28;20041;-67
2022/11/13 05:12:01;;;;;;;4.90;2.55;;;;;;;;;;5039187;28;20051;-65
2022/11/13 05:14:27;;;;;;;7.78;2.92;;;;;;;;;;5039470;28;20045;-64
2022/11/13 05:16:53;;;;;;;6.13;2.63;;;;;;;;;;5043619;28;20438;-66
2022/11/13 05:19:18;;;;;;;3.90;2.35;;;;;;;;;;5041337;28;20053;-64
2022/11/13 05:21:44;;;;;;;7.40;2.60;;;;;;;;;;5035260;28;20046;-64
2022/11/13 05:24:10;;;;;;;5.93;3.00;;;;;;;;;;5040952;28;20056;-64
2022/11/13 05:26:37;;;;;;;7.68;2.75;;;;;;;;;;5038236;28;20426;-67
2022/11/13 05:29:04;;;;;;;5.70;2.38;;;;;;;;;;5037923;28;20045;-66
2022/11/13 05:31:30;;;;;;;7.97;2.60;;;;;;;;;;5044297;28;20049;-65
2022/11/13 05:33:56;;;;;;;6.68;2.80;;;;;;;;;;5045480;28;20372;-66
2022/11/13 05:36:22;;;;;;;5.25;2.67;;;;;;;;;;5036380;28;20056;-64
2022/11/13 05:38:48;;;;;;;5.18;2.67;;;;;;;;;;5031177;28;20055;-65
2022/11/13 05:41:19;;;;;;;4.07;2.50;;;;;;;;;;5042467;28;20045;-66
2022/11/13 05:43:46;;;;;;;4.93;2.60;;;;;;;;;;5030240;28;20411;-64
2022/11/13 05:46:17;;;;;;;6.75;2.72;;;;;;;;;;5034798;28;20049;-64
2022/11/13 05:48:44;;;;;;;8.32;2.83;;;;;;;;;;5043529;28;20049;-64
2022/11/13 05:51:16;;;;;;;5.25;2.83;;;;;;;;;;5030379;28;20053;-65
2022/11/13 05:53:42;;;;;;;7.13;2.70;;;;;;;;;;5043515;28;20090;-65
2022/11/13 05:56:16;;;;;;;5.32;2.65;;;;;;;;;;5041965;28;20102;-64
2022/11/13 05:58:43;;;;;;;7.93;2.72;;;;;;;;;;5032571;28;20056;-64
2022/11/13 06:01:15;;;;;;;3.92;2.65;;;;;;;;;;5030376;28;20056;-65
2022/11/13 06:03:42;;;;;;;6.78;2.55;;;;;;;;;;5032659;28;20133;-64
2022/11/13 06:06:11;;;;;;;5.88;2.85;;;;;;;;;;5037892;28;20049;-65
2022/11/13 06:08:38;;;;;;;4.78;2.67;;;;;;;;;;5033723;28;20494;-65
2022/11/13 06:11:06;;;;;;;9.73;2.70;;;;;;;;;;5034364;28;20087;-63
2022/11/13 06:13:32;;;;;;;5.75;2.33;;;;;;;;;;5037898;28;20041;-65
2022/11/13 06:16:06;;;;;;;6.22;2.60;;;;;;;;;;5040274;28;20049;-65
2022/11/13 06:18:33;;;;;;;5.65;2.47;;;;;;;;;;5029823;28;20521;-64
2022/11/13 06:21:04;;;;;;;5.75;3.50;;;;;;;;;;5031447;28;20048;-65
2022/11/13 06:23:32;;;;;;;5.47;2.67;;;;;;;;;;5048410;28;20136;-66
2022/11/13 06:26:03;;;;;;;6.80;2.70;;;;;;;;;;5041979;28;20690;-65
2022/11/13 06:28:29;;;;;;;6.40;2.85;;;;;;;;;;5029758;28;20062;-64
2022/11/13 06:30:55;;;;;;;5.40;3.13;;;;;;;;;;5036381;28;20062;-65
2022/11/13 06:33:21;;;;;;;6.25;2.67;;;;;;;;;;5043349;28;20124;-66
2022/11/13 06:35:47;;;;;;;10.95;3.08;;;;;;;;;;5050128;28;20064;-67
2022/11/13 06:38:12;;;;;;;10.88;2.90;;;;;;;;;;5034210;28;20045;-67
2022/11/13 06:40:39;;;;;;;6.50;2.78;;;;;;;;;;5045568;28;20052;-65
2022/11/13 06:43:05;;;;;;;6.57;3.45;;;;;;;;;;5041274;28;20454;-66
2022/11/13 06:45:30;;;;;;;6.32;2.72;;;;;;;;;;5032256;28;20041;-65
2022/11/13 06:47:56;;;;;;;7.00;2.92;;;;;;;;;;5041242;28;20041;-67
2022/11/13 06:50:22;;;;;;;4.93;2.38;;;;;;;;;;5038549;28;20049;-65
2022/11/13 06:52:48;;;;;;;4.50;2.30;;;;;;;;;;5037932;28;20064;-67
2022/11/13 06:55:13;;;;;;;5.03;2.78;;;;;;;;;;5037354;28;20050;-65
2022/11/13 06:57:39;;;;;;;6.13;2.38;;;;;;;;;;5042232;28;20088;-64
2022/11/13 07:00:06;;;;;;;7.70;2.60;;;;;;;;;;5022380;28;20475;-67
2022/11/13 07:02:31;;;;;;;6.40;2.50;;;;;;;;;;5036239;28;20052;-65
2022/11/13 07:04:57;;;;;;;11.68;2.42;;;;;;;;;;5041098;28;20120;-65
2022/11/13 07:07:23;;;;;;;8.32;3.42;;;;;;;;;;5025714;28;20368;-64
2022/11/13 07:09:49;;;;;;;10.30;3.65;;;;;;;;;;5037666;28;20041;-66
2022/11/13 07:12:15;;;;;;;7.50;2.92;;;;;;;;;;5038388;28;20522;-65
2022/11/13 07:14:41;;;;;;;4.85;2.40;;;;;;;;;;5036443;28;20061;-66
2022/11/13 07:17:07;;;;;;;5.80;2.90;;;;;;;;;;5043489;28;20461;-64
2022/11/13 07:19:33;;;;;;;6.50;3.38;;;;;;;;;;5030052;28;20038;-67
2022/11/13 07:21:59;;;;;;;6.68;3.42;;;;;;;;;;5040230;28;20144;-66
2022/11/13 07:24:26;;;;;;;10.10;4.55;;;;;;;;;;5035376;28;20060;-65
2022/11/13 07:26:51;;;;;;;12.02;4.10;;;;;;;;;;5043146;28;20045;-67
2022/11/13 07:29:17;;;;;;;8.35;2.90;;;;;;;;;;5038829;28;20041;-65
2022/11/13 07:31:43;;;;;;;5.70;2.40;;;;;;;;;;5037132;28;20056;-65
2022/11/13 07:34:09;;;;;;;7.63;2.53;;;;;;;;;;5045474;28;20573;-65
2022/11/13 07:36:35;;;;;;;4.95;2.60;;;;;;;;;;5039896;28;20119;-65
2022/11/13 07:39:02;;;;;;;6.38;2.20;;;;;;;;;;5037880;28;20041;-66
2022/11/13 07:41:29;;;;;;;9.35;2.30;;;;;;;;;;5037722;28;20085;-64
2022/11/13 07:43:55;;;;;;;5.10;2.30;;;;;;;;;;5042203;28;20364;-65
2022/11/13 07:46:21;;;;;;;4.60;2.30;;;;;;;;;;5038110;28;20709;-64
2022/11/13 07:48:46;;;;;;;6.35;2.63;;;;;;;;;;5041706;28;20052;-67
2022/11/13 07:51:12;;;;;;;4.75;2.65;;;;;;;;;;5039674;28;20072;-64
2022/11/13 07:53:38;;;;;;;5.88;2.50;;;;;;;;;;5050942;28;20052;-66
2022/11/13 07:56:05;;;;;;;3.72;2.15;;;;;;;;;;5042593;28;20064;-67
2022/11/13 07:58:31;;;;;;;5.05;2.45;;;;;;;;;;5044459;28;20041;-65
2022/11/13 08:01:04;;;;;;;5.22;2.60;;;;;;;;;;5036702;28;20048;-65
2022/11/13 08:03:31;;;;;;;4.03;2.25;;;;;;;;;;5043564;28;20911;-66
2022/11/13 08:06:03;;;;;;;13.32;2.38;;;;;;;;;;5037865;28;20053;-66
2022/11/13 08:08:30;;;;;;;4.63;2.40;;;;;;;;;;5042142;28;20056;-65
2022/11/13 08:10:56;;;;;;;10.43;2.47;;;;;;;;;;5044125;28;20552;-66
2022/11/13 08:13:23;;;;;;;7.60;2.28;;;;;;;;;;5023971;28;20049;-66
2022/11/13 08:15:49;;;;;;;4.80;2.60;;;;;;;;;;5038774;28;20057;-67
2022/11/13 08:18:15;;;;;;;5.30;2.20;;;;;;;;;;5039675;28;20701;-63
2022/11/13 08:20:41;;;;;;;6.25;2.58;;;;;;;;;;5044542;28;20045;-67
2022/11/13 08:23:08;;;;;;;6.80;3.30;;;;;;;;;;5049283;28;20045;-65
2022/11/13 08:25:35;;;;;;;5.25;2.55;;;;;;;;;;5042583;28;20493;-65
2022/11/13 08:28:01;;;;;;;8.57;2.80;;;;;;;;;;5041940;28;20447;-67
2022/11/13 08:30:28;;;;;;;11.13;2.85;;;;;;;;;;5037955;28;20057;-68
2022/11/13 08:32:54;;;;;;;7.22;2.72;;;;;;;;;;5035169;28;20548;-65
2022/11/13 08:35:20;;;;;;;5.03;2.88;;;;;;;;;;5037395;28;20053;-67
2022/11/13 08:37:46;;;;;;;9.10;3.22;;;;;;;;;;5044993;28;20555;-67
2022/11/13 08:40:12;;;;;;;9.05;3.03;;;;;;;;;;5038835;28;20078;-64
2022/11/13 08:42:38;;;;;;;8.52;3.60;;;;;;;;;;5037668;28;20062;-65
2022/11/13 08:45:05;;;;;;;7.93;2.83;;;;;;;;;;5035146;28;20086;-64
2022/11/13 08:47:30;;;;;;;4.85;2.60;;;;;;;;;;5046106;28;20509;-64
2022/11/13 08:49:56;;;;;;;9.00;2.70;;;;;;;;;;5040569;28;20044;-64
2022/11/13 08:52:22;;;;;;;7.00;2.60;;;;;;;;;;5046581;28;20053;-66
2022/11/13 08:54:48;;;;;;;8.80;2.80;;;;;;;;;;5043908;28;21263;-66
2022/11/13 08:57:14;;;;;;;5.68;2.60;;;;;;;;;;5040991;28;20061;-65
2022/11/13 08:59:40;;;;;;;6.47;2.90;;;;;;;;;;5041528;28;20056;-64
2022/11/13 09:02:06;;;;;;;5.93;3.20;;;;;;;;;;5042656;28;20430;-63
2022/11/13 09:04:32;;;;;;;7.78;3.08;;;;;;;;;;5041104;28;20105;-65
2022/11/13 09:06:58;;;;;;;6.53;2.40;;;;;;;;;;5043257;28;20045;-69
2022/11/13 09:09:24;;;;;;;7.95;2.25;;;;;;;;;;5044615;28;20048;-68
2022/11/13 09:11:50;;;;;;;4.85;2.35;;;;;;;;;;5038584;28;20505;-66
2022/11/13 09:14:16;;;;;;;6.70;2.60;;;;;;;;;;5039017;28;20057;-66
2022/11/13 09:16:42;;;;;;;8.25;2.45;;;;;;;;;;5046324;28;20111;-65
2022/11/13 09:19:08;;;;;;;6.20;2.28;;;;;;;;;;5040054;28;20060;-67
2022/11/13 09:21:34;;;;;;;5.95;2.60;;;;;;;;;;5039834;28;20082;-67
2022/11/13 09:24:00;;;;;;;7.00;2.20;;;;;;;;;;5043712;28;20037;-67
2022/11/13 09:26:25;;;;;;;8.93;2.45;;;;;;;;;;5046847;28;20041;-65
2022/11/13 09:28:51;;;;;;;7.57;2.63;;;;;;;;;;5042914;28;20171;-63
2022/11/13 09:31:17;;;;;;;7.28;3.13;;;;;;;;;;5038171;28;20049;-64
2022/11/13 09:33:43;;;;;;;8.02;2.75;;;;;;;;;;5042851;28;20052;-66
2022/11/13 09:36:14;;;;;;;7.88;2.22;;;;;;;;;;5037707;28;20068;-65
2022/11/13 09:38:41;;;;;;;4.03;2.45;;;;;;;;;;5042171;28;20070;-65
2022/11/13 09:41:09;;;;;;;5.75;2.30;;;;;;;;;;5033039;28;20106;-66
2022/11/13 09:43:46;;;;;;;3.70;1.92;;;;;;;;;;5041262;28;20057;-67
2022/11/13 09:46:35;;;;;;;9.05;2.63;;;;;;;;;;5043658;28;20561;-65
2022/11/13 09:49:15;;;;;;;7.50;2.50;;;;;;;;;;5022318;28;20052;-66
2022/11/13 09:51:49;;;;;;;5.15;2.65;;;;;;;;;;5044850;28;20041;-66
2022/11/13 09:54:16;;;;;;;12.10;2.80;;;;;;;;;;5038617;28;20056;-66
2022/11/13 09:56:57;;;;;;;7.05;2.97;;;;;;;;;;5043731;28;20041;-64
2022/11/13 09:59:52;;;;;;;7.55;2.83;;;;;;;;;;5035126;28;20130;-67
2022/11/13 10:02:40;;;;;;;6.53;2.70;;;;;;;;;;5038414;28;20521;-64
2022/11/13 10:05:14;;;;;;;6.10;2.70;;;;;;;;;;5039370;28;20512;-67
2022/11/13 10:07:52;;;;;;;5.93;2.63;;;;;;;;;;5039700;28;20494;-66
2022/11/13 10:10:21;;;;;;;6.38;3.05;;;;;;;;;;5043892;28;20052;-67
2022/11/13 10:12:51;;;;;;;9.95;2.70;;;;;;;;;;5037763;28;20063;-65
2022/11/13 10:15:20;;;;;;;4.40;2.28;;;;;;;;;;5043924;28;20053;-69
2022/11/13 10:17:55;;;;;;;7.90;3.35;;;;;;;;;;5035860;28;20065;-65
2022/11/13 10:20:25;;;;;;;11.35;2.70;;;;;;;;;;5041703;28;20049;-66
2022/11/13 10:23:03;;;;;;;6.68;3.00;;;;;;;;;;5035850;28;20517;-65
2022/11/13 10:25:34;;;;;;;4.82;2.47;;;;;;;;;;5037281;28;20126;-66
2022/11/13 10:28:01;;;;;;;6.15;2.63;;;;;;;;;;5023203;28;20073;-66
2022/11/13 10:30:28;;;;;;;6.82;2.47;;;;;;;;;;5040144;28;20122;-65
2022/11/13 10:33:03;;;;;;;11.75;3.78;;;;;;;;;;5036208;28;20037;-64
2022/11/13 10:35:40;;;;;;;4.43;2.30;;;;;;;;;;5039165;28;20056;-68
2022/11/13 10:38:25;;;;;;;4.95;2.28;;;;;;;;;;5041709;28;20064;-67
2022/11/13 10:40:51;;;;;;;5.88;2.50;;;;;;;;;;5043329;28;20643;-66
2022/11/13 10:43:21;;;;;;;6.15;2.50;;;;;;;;;;5040920;28;20402;-69
2022/11/13 10:46:02;;;;;;;8.68;2.40;;;;;;;;;;5027939;28;20044;-64
2022/11/13 10:48:29;;;;;;;8.55;2.60;;;;;;;;;;5038530;28;20071;-66
2022/11/13 10:51:21;;;;;;;5.57;2.53;;;;;;;;;;5036752;28;20045;-68
2022/11/13 10:53:48;;;;;;;8.98;2.45;;;;;;;;;;5040580;28;20053;-66
2022/11/13 10:56:34;;;;;;;6.20;2.40;;;;;;;;;;5039505;28;20468;-65
2022/11/13 10:59:21;;;;;;;7.50;1.95;;;;;;;;;;5039623;28;20084;-65
2022/11/13 11:01:48;;;;;;;13.65;2.45;;;;;;;;;;5035900;28;20041;-66
2022/11/13 11:04:28;;;;;;;8.27;2.22;;;;;;;;;;5041360;28;20158;-67
2022/11/13 11:07:02;;;;;;;5.93;2.10;;;;;;;;;;5040457;28;20552;-65
2022/11/13 11:09:31;;;;;;;9.75;2.17;;;;;;;;;;5044691;28;20053;-65
2022/11/13 11:12:16;;;;;;;5.88;2.00;;;;;;;;;;5043176;28;20490;-65
2022/11/13 11:15:09;;;;;;;5.75;2.05;;;;;;;;;;5039772;28;20462;-66
2022/11/13 11:17:41;;;;;;;8.90;2.80;;;;;;;;;;5040236;28;20057;-67
2022/11/13 11:20:43;;;;;;;5.38;2.42;;;;;;;;;;5035083;28;23769;-66
2022/11/13 11:23:47;;;;;;;11.02;3.30;;;;;;;;;;5047066;28;20087;-66
2022/11/13 11:26:35;;;;;;;6.53;1.98;;;;;;;;;;5039534;28;20508;-66
2022/11/13 11:29:16;;;;;;;7.40;2.20;;;;;;;;;;5036091;28;20048;-65
2022/11/13 11:31:54;;;;;;;5.85;2.15;;;;;;;;;;5036390;28;20378;-67
2022/11/13 11:34:32;;;;;;;3.83;1.88;;;;;;;;;;5038756;28;20053;-68
2022/11/13 11:37:20;;;;;;;4.93;1.80;;;;;;;;;;5036894;28;20046;-65
2022/11/13 11:39:53;;;;;;;8.85;2.25;;;;;;;;;;5026676;28;20044;-69
2022/11/13 11:42:21;;;;;;;9.88;2.08;;;;;;;;;;5032940;28;20045;-64
2022/11/13 11:45:05;;;;;;;12.88;2.05;;;;;;;;;;5029729;28;20404;-67
2022/11/13 11:47:32;;;;;;;9.40;2.90;;;;;;;;;;5034208;28;20050;-67
2022/11/13 11:50:00;;;;;;;7.88;2.20;;;;;;;;;;5037017;28;20055;-69
2022/11/13 11:52:49;;;;;;;6.18;2.17;;;;;;;;;;5039441;28;20136;-66
2022/11/13 11:55:28;;;;;;;7.22;2.45;;;;;;;;;;5039645;28;20423;-67
2022/11/13 11:58:16;;;;;;;10.90;2.28;;;;;;;;;;5020316;28;20110;-69
2022/11/13 12:00:49;;;;;;;9.82;2.72;;;;;;;;;;5017592;28;20466;-67
2022/11/13 12:03:27;;;;;;;13.50;3.03;;;;;;;;;;5024270;28;20144;-68
2022/11/13 12:06:06;;;;;;;13.85;2.72;;;;;;;;;;5029843;28;20490;-66
2022/11/13 12:08:55;;;;;;;6.13;2.08;;;;;;;;;;5023080;28;20056;-68
2022/11/13 12:11:33;;;;;;;10.85;2.50;;;;;;;;;;5019143;28;20691;-68
2022/11/13 12:14:14;;;;;;;8.88;2.45;;;;;;;;;;5025775;28;20120;-64
2022/11/13 12:16:54;;;;;;;10.57;3.33;;;;;;;;;;5032965;28;20045;-65
2022/11/13 12:19:30;;;;;;;7.72;2.15;;;;;;;;;;5032292;28;20513;-74
2022/11/13 12:22:11;;;;;;;8.23;2.15;;;;;;;;;;5035651;28;20123;-66
2022/11/13 12:24:49;;;;;;;5.63;2.17;;;;;;;;;;5021327;28;20144;-67
2022/11/13 12:27:30;;;;;;;11.20;2.30;;;;;;;;;;5033791;28;20118;-65
2022/11/13 12:30:15;;;;;;;10.57;2.33;;;;;;;;;;5036760;28;20140;-67
2022/11/13 12:33:07;;;;;;;12.85;2.60;;;;;;;;;;5036897;28;20387;-68
2022/11/13 12:35:34;;;;;;;6.45;2.60;;;;;;;;;;5039132;28;20049;-65
2022/11/13 12:38:26;;;;;;;7.90;2.50;;;;;;;;;;5045405;28;20041;-65
2022/11/13 12:41:03;;;;;;;11.50;2.88;;;;;;;;;;4963491;28;20050;-67
2022/11/13 12:43:54;;;;;;;8.80;2.60;;;;;;;;;;4963554;28;20067;-68
2022/11/13 12:46:20;;;;;;;7.38;2.47;;;;;;;;;;4963674;28;20452;-68
2022/11/13 12:48:47;;;;;;;7.68;2.22;;;;;;;;;;4963071;28;20046;-65
2022/11/13 12:51:16;;;;;;;10.38;2.40;;;;;;;;;;4961983;28;20508;-66
2022/11/13 12:53:51;;;;;;;8.30;2.65;;;;;;;;;;4952694;28;20043;-66
2022/11/13 12:56:24;;;;;;;7.03;2.20;;;;;;;;;;4962165;28;20062;-65
2022/11/13 12:58:59;;;;;;;7.30;2.10;;;;;;;;;;4962694;28;20043;-68
2022/11/13 13:01:34;;;;;;;8.82;2.63;;;;;;;;;;4958066;28;20846;-67
2022/11/13 13:04:18;;;;;;;6.85;2.40;;;;;;;;;;4939893;28;20133;-69
2022/11/13 13:07:11;;;;;;;6.68;2.20;;;;;;;;;;4954376;28;20639;-68
2022/11/13 13:09:57;;;;;;;7.60;2.33;;;;;;;;;;4961820;28;20098;-66
2022/11/13 13:12:41;;;;;;;11.02;2.47;;;;;;;;;;4962127;28;20050;-67
2022/11/13 13:15:50;;;;;;;8.25;2.55;;;;;;;;;;4963234;28;20552;-68
2022/11/13 13:18:16;;;;;;;8.88;2.70;;;;;;;;;;5010660;28;20131;-70
2022/11/13 13:21:08;;;;;;;8.48;2.45;;;;;;;;;;5030836;28;20045;-66
2022/11/13 13:23:43;;;;;;;8.38;2.20;;;;;;;;;;5030409;28;20071;-66
2022/11/13 13:26:12;;;;;;;14.10;2.65;;;;;;;;;;5046518;28;20293;-67
2022/11/13 13:28:41;;;;;;;7.70;2.65;;;;;;;;;;5042849;28;20045;-67
2022/11/13 13:31:40;;;;;;;7.90;2.65;;;;;;;;;;5042204;28;20119;-67
2022/11/13 13:34:31;;;;;;;8.77;3.05;;;;;;;;;;5025732;28;20068;-66
2022/11/13 13:37:11;;;;;;;8.98;2.70;;;;;;;;;;5039877;28;20072;-69
2022/11/13 13:39:56;;;;;;;7.63;2.50;;;;;;;;;;5046796;28;20040;-64
2022/11/13 13:42:37;;;;;;;;;;;;;;;;;;5047472;28;20053;-71
2022/11/13 13:45:15;;;;;;;8.07;2.65;;;;;;;;;;5048326;28;20386;-68
2022/11/13 13:47:50;;;;;;;9.02;2.63;;;;;;;;;;5032053;28;20466;-67
2022/11/13 13:50:23;;;;;;;9.70;2.90;;;;;;;;;;5036259;28;20119;-66
2022/11/13 13:52:51;;;;;;;10.95;3.03;;;;;;;;;;5043455;28;20301;-66
2022/11/13 13:55:42;;;;;;;9.68;3.03;;;;;;;;;;5044923;28;20041;-68
2022/11/13 13:58:16;;;;;;;8.77;2.20;;;;;;;;;;5026188;28;20049;-70
2022/11/13 14:00:42;;;;;;;8.57;2.85;;;;;;;;;;5024274;28;20053;-70
2022/11/13 14:03:19;;;;;;;7.13;2.85;;;;;;;;;;5026162;28;20076;-69
2022/11/13 14:05:45;;;;;;;13.00;2.78;;;;;;;;;;5035544;28;20449;-68
2022/11/13 14:08:16;;;;;;;10.45;3.22;;;;;;;;;;5038213;28;20053;-66
2022/11/13 14:10:45;;;;;;;6.35;2.33;;;;;;;;;;5029051;28;20045;-67
2022/11/13 14:13:12;;;;;;;8.85;2.55;;;;;;;;;;5029580;28;20044;-69
2022/11/13 14:15:38;;;;;;;11.35;2.70;;;;;;;;;;5027371;28;20055;-69
2022/11/13 14:18:16;;;;;;;8.32;2.58;;;;;;;;;;5033788;28;20064;-67
2022/11/13 14:20:58;;;;;;;7.70;2.78;;;;;;;;;;5027543;28;20391;-69
2022/11/13 14:23:26;;;;;;;9.82;2.38;;;;;;;;;;5024257;28;20422;-72
2022/11/13 14:25:54;;;;;;;11.13;3.10;;;;;;;;;;5034753;28;20052;-67
2022/11/13 14:28:25;;;;;;;8.50;2.35;;;;;;;;;;5043114;28;20331;-71
2022/11/13 14:30:59;;;;;;;10.70;2.58;;;;;;;;;;5042350;28;20368;-68
2022/11/13 14:33:31;;;;;;;11.38;2.80;;;;;;;;;;5032948;28;20049;-68
2022/11/13 14:35:58;;;;;;;12.13;2.53;;;;;;;;;;5030141;28;20053;-68
2022/11/13 14:38:30;;;;;;;6.75;2.38;;;;;;;;;;5034883;28;20065;-69
2022/11/13 14:40:57;;;;;;;8.80;2.28;;;;;;;;;;5039366;28;20304;-68
2022/11/13 14:43:27;;;;;;;8.05;2.40;;;;;;;;;;5045094;28;20441;-68
2022/11/13 14:46:04;;;;;;;10.93;2.83;;;;;;;;;;5033877;28;20053;-68
2022/11/13 14:48:33;;;;;;;7.55;2.33;;;;;;;;;;5045962;28;20075;-70
2022/11/13 14:51:01;;;;;;;9.20;2.40;;;;;;;;;;5037152;28;20052;-68
2022/11/13 14:53:31;;;;;;;12.77;2.60;;;;;;;;;;5045884;28;20118;-69
2022/11/13 14:56:08;;;;;;;9.05;2.30;;;;;;;;;;5036332;28;20153;-68
2022/11/13 14:58:45;;;;;;;11.25;2.60;;;;;;;;;;5024069;28;21399;-69